Time;durP1;ratioP1;P1;durP2;ratioP2;P2;SDS_P1;SDS_P2;PMS_P1;PMS_P2;Temp;Humidity;BMP_temperature;BMP_pressure;BME280_temperature;BME280_humidity;BME280_pressure;Samples;Min_cycle;Max_cycle;Signal;HPM_P1;HPM_P2
2022/02/22 00:00:11;;;;;;;20.58;10.98;;;;;;;4.38;92.46;99535.88;5109317;28;20081;-70
2022/02/22 00:02:37;;;;;;;22.38;11.00;;;;;;;4.37;91.86;99552.78;5107793;28;20383;-70
2022/02/22 00:05:03;;;;;;;20.45;9.75;;;;;;;4.28;91.58;99543.69;5109487;28;20032;-70
2022/02/22 00:07:29;;;;;;;19.55;10.20;;;;;;;4.28;91.52;99548.16;5108956;28;20172;-69
2022/02/22 00:09:55;;;;;;;15.70;8.85;;;;;;;4.23;91.47;99545.00;5109039;28;20036;-70
2022/02/22 00:12:22;;;;;;;19.88;8.98;;;;;;;4.17;91.23;99553.41;5109123;28;20024;-70
2022/02/22 00:14:48;;;;;;;16.85;9.13;;;;;;;4.13;91.29;99557.25;5107381;28;20031;-69
2022/02/22 00:17:13;;;;;;;17.92;8.48;;;;;;;4.08;91.76;99560.25;5108684;28;20031;-70
2022/02/22 00:19:39;;;;;;;21.05;10.73;;;;;;;4.03;91.70;99561.56;5109212;28;20035;-77
2022/02/22 00:22:04;;;;;;;17.75;8.98;;;;;;;3.98;91.32;99572.50;5109639;28;20024;-76
2022/02/22 00:24:30;;;;;;;17.80;9.38;;;;;;;3.97;91.81;99564.66;5110440;28;20170;-78
2022/02/22 00:26:55;;;;;;;17.92;8.90;;;;;;;3.91;92.10;99568.59;5110055;28;20024;-77
2022/02/22 00:29:21;;;;;;;21.33;10.13;;;;;;;3.93;92.66;99573.75;5109964;28;20039;-77
2022/02/22 00:31:46;;;;;;;16.42;9.40;;;;;;;3.86;92.95;99572.53;5109997;28;20049;-77
2022/02/22 00:34:12;;;;;;;16.10;8.93;;;;;;;3.78;93.03;99551.03;5109976;28;20031;-77
2022/02/22 00:36:37;;;;;;;16.35;8.80;;;;;;;3.76;93.25;99555.59;5108718;28;20475;-77
2022/02/22 00:39:05;;;;;;;18.63;9.52;;;;;;;3.74;92.85;99554.88;5110143;28;20023;-77
2022/02/22 00:41:31;;;;;;;15.82;9.00;;;;;;;3.74;93.19;99568.94;5109639;28;20065;-77
2022/02/22 00:43:57;;;;;;;16.23;9.48;;;;;;;3.73;93.90;99566.41;5108406;28;20544;-77
2022/02/22 00:46:22;;;;;;;18.35;8.50;;;;;;;3.71;93.77;99573.66;5109649;28;20043;-77
2022/02/22 00:48:48;;;;;;;17.98;9.07;;;;;;;3.66;93.38;99571.31;5109285;28;20055;-68
2022/02/22 00:51:14;;;;;;;19.77;8.93;;;;;;;3.63;92.99;99574.19;5108388;28;20031;-78
2022/02/22 00:53:39;;;;;;;17.65;9.20;;;;;;;3.53;92.90;99567.84;5110453;28;20023;-77
2022/02/22 00:56:04;;;;;;;16.48;8.68;;;;;;;3.54;93.11;99566.88;5111719;28;20073;-77
2022/02/22 00:58:30;;;;;;;17.20;9.30;;;;;;;3.54;93.63;99572.19;5110390;28;20023;-78
2022/02/22 01:00:55;;;;;;;14.07;8.40;;;;;;;3.51;93.75;99563.63;5109938;28;20019;-78
2022/02/22 01:03:21;;;;;;;18.63;8.27;;;;;;;3.51;93.97;99561.81;5110003;28;20031;-77
2022/02/22 01:05:46;;;;;;;19.52;8.20;;;;;;;3.54;93.80;99566.03;5109493;28;20106;-70
2022/02/22 01:08:12;;;;;;;17.77;8.20;;;;;;;3.50;93.65;99564.56;5108025;28;20035;-68
2022/02/22 01:10:37;;;;;;;13.55;7.20;;;;;;;3.55;93.98;99571.22;5107125;28;20088;-70
2022/02/22 01:13:03;;;;;;;17.65;8.20;;;;;;;3.58;92.60;99573.66;5108257;28;20051;-69
2022/02/22 01:15:29;;;;;;;12.05;7.20;;;;;;;3.60;92.77;99576.19;5109580;28;20454;-77
2022/02/22 01:17:55;;;;;;;15.50;8.02;;;;;;;3.62;92.47;99576.94;5109925;28;20031;-77
2022/02/22 01:20:20;;;;;;;13.85;7.13;;;;;;;3.64;91.72;99580.34;5108848;28;20042;-70
2022/02/22 01:22:47;;;;;;;12.63;7.20;;;;;;;3.70;90.98;99582.53;5106460;28;20035;-68
2022/02/22 01:25:13;;;;;;;15.50;7.03;;;;;;;3.65;90.28;99576.72;5107658;28;20052;-68
2022/02/22 01:27:39;;;;;;;15.55;6.65;;;;;;;3.70;89.97;99585.19;5107116;28;20479;-69
2022/02/22 01:30:07;;;;;;;14.95;6.50;;;;;;;3.84;88.36;99588.53;5106726;28;20028;-70
2022/02/22 01:32:33;;;;;;;15.13;6.57;;;;;;;3.88;87.85;99589.19;5107764;28;20035;-68
2022/02/22 01:34:58;;;;;;;10.98;6.38;;;;;;;3.84;87.92;99591.19;5111698;28;20616;-68
2022/02/22 01:37:24;;;;;;;13.43;6.10;;;;;;;3.91;87.11;99591.63;5110520;28;20058;-68
2022/02/22 01:39:49;;;;;;;11.02;5.90;;;;;;;3.99;86.26;99582.16;5111868;28;20034;-68
2022/02/22 01:42:15;;;;;;;9.40;5.38;;;;;;;4.01;85.90;99582.88;5111875;28;20035;-68
2022/02/22 01:44:40;;;;;;;12.38;6.15;;;;;;;3.95;85.30;99572.72;5110476;28;20038;-68
2022/02/22 01:47:07;;;;;;;11.15;5.15;;;;;;;4.14;84.58;99588.13;5111740;28;20051;-68
2022/02/22 01:49:33;;;;;;;14.70;5.93;;;;;;;4.19;83.55;99583.31;5111651;28;20546;-68
2022/02/22 01:52:02;;;;;;;9.73;4.97;;;;;;;4.17;83.82;99582.59;5111695;28;20539;-68
2022/02/22 01:54:27;;;;;;;9.90;5.28;;;;;;;4.15;83.37;99566.78;5111399;27;20110;-68
2022/02/22 01:56:53;;;;;;;7.43;4.72;;;;;;;4.09;84.04;99571.69;5111627;28;20597;-68
2022/02/22 01:59:20;;;;;;;12.98;5.25;;;;;;;4.25;83.02;99574.91;5111483;28;20027;-68
2022/02/22 02:01:46;;;;;;;10.57;5.15;;;;;;;4.22;82.28;99564.53;5111142;28;20035;-68
2022/02/22 02:04:12;;;;;;;9.57;4.82;;;;;;;4.23;82.72;99566.25;5111622;28;20045;-68
2022/02/22 02:06:38;;;;;;;10.10;5.18;;;;;;;4.24;83.14;99559.97;5111408;28;20020;-68
2022/02/22 02:09:08;;;;;;;10.55;5.88;;;;;;;4.11;83.44;99568.00;5111389;28;20012;-69
2022/02/22 02:11:54;;;;;;;10.40;5.25;;;;;;;4.16;84.22;99572.97;5111380;28;20482;-69
2022/02/22 02:14:20;;;;;;;8.80;5.55;;;;;;;4.19;84.19;99580.66;5110985;28;20062;-69
2022/02/22 02:16:45;;;;;;;10.93;5.85;;;;;;;4.19;83.87;99570.06;5111127;28;20478;-69
2022/02/22 02:19:13;;;;;;;11.45;5.55;;;;;;;4.19;84.20;99575.34;5111383;28;20027;-69
2022/02/22 02:21:40;;;;;;;11.02;5.88;;;;;;;4.12;85.29;99585.59;5111171;28;20378;-69
2022/02/22 02:24:13;;;;;;;12.35;6.18;;;;;;;4.10;85.20;99571.59;5110968;28;20039;-68
2022/02/22 02:26:39;;;;;;;13.40;6.10;;;;;;;4.13;85.43;99565.22;5111365;28;20670;-69
2022/02/22 02:29:16;;;;;;;12.35;5.63;;;;;;;4.05;85.84;99565.78;5108338;28;20114;-69
2022/02/22 02:31:44;;;;;;;15.40;6.32;;;;;;;4.11;86.43;99591.88;5111222;28;20046;-69
2022/02/22 02:34:12;;;;;;;15.90;6.70;;;;;;;4.14;86.69;99585.47;5111211;28;20032;-69
2022/02/22 02:36:39;;;;;;;15.13;6.78;;;;;;;4.09;87.01;99599.09;5109640;28;20027;-69
2022/02/22 02:39:07;;;;;;;11.55;6.70;;;;;;;3.95;87.68;99577.16;5110783;27;20130;-69
2022/02/22 02:41:33;;;;;;;15.98;7.30;;;;;;;4.03;87.65;99602.19;5109513;28;20948;-69
2022/02/22 02:44:05;;;;;;;11.93;7.30;;;;;;;4.05;87.59;99610.88;5110421;28;20050;-69
2022/02/22 02:46:31;;;;;;;13.73;7.78;;;;;;;3.95;88.01;99609.84;5108139;28;20068;-69
2022/02/22 02:48:56;;;;;;;17.00;8.95;;;;;;;3.98;87.57;99611.44;5109569;28;20462;-69
2022/02/22 02:51:23;;;;;;;21.52;9.52;;;;;;;3.91;87.71;99604.88;5111097;28;20024;-76
2022/02/22 02:53:52;;;;;;;18.55;9.73;;;;;;;3.91;87.60;99612.84;5112227;28;20047;-76
2022/02/22 02:56:22;;;;;;;18.00;10.20;;;;;;;3.83;88.00;99612.53;5112234;28;20103;-76
2022/02/22 02:58:49;;;;;;;18.15;10.13;;;;;;;3.79;88.49;99616.34;5109429;28;20012;-77
2022/02/22 03:01:15;;;;;;;19.05;10.15;;;;;;;3.77;89.30;99623.59;5111702;28;20035;-77
2022/02/22 03:03:40;;;;;;;16.33;9.63;;;;;;;3.81;88.90;99617.94;5110142;28;20089;-77
2022/02/22 03:06:06;;;;;;;19.05;10.77;;;;;;;3.62;88.96;99606.97;5111770;28;20383;-77
2022/02/22 03:08:31;;;;;;;19.23;9.95;;;;;;;3.67;89.13;99614.56;5110205;28;20023;-76
2022/02/22 03:10:57;;;;;;;18.50;9.73;;;;;;;3.69;89.67;99632.09;5111490;27;20102;-76
2022/02/22 03:13:22;;;;;;;24.48;11.30;;;;;;;3.69;89.24;99636.53;5111625;28;20027;-76
2022/02/22 03:15:47;;;;;;;21.15;11.48;;;;;;;3.68;89.44;99630.38;5111535;28;20478;-76
2022/02/22 03:18:13;;;;;;;23.40;11.30;;;;;;;3.62;89.82;99645.88;5112019;28;20418;-75
2022/02/22 03:20:38;;;;;;;23.55;11.82;;;;;;;3.59;89.56;99639.00;5109818;28;20038;-76
2022/02/22 03:23:04;;;;;;;20.23;10.63;;;;;;;3.47;90.47;99639.84;5109928;28;20440;-69
2022/02/22 03:25:29;;;;;;;21.70;11.82;;;;;;;3.53;90.53;99651.81;5110188;28;20027;-68
2022/02/22 03:27:55;;;;;;;21.30;10.88;;;;;;;3.41;90.89;99647.34;5109798;28;20035;-69
2022/02/22 03:30:21;;;;;;;19.17;10.65;;;;;;;3.43;91.13;99642.81;5109091;28;20020;-68
2022/02/22 03:32:46;;;;;;;20.75;11.10;;;;;;;3.44;91.71;99658.59;5107575;28;20039;-68
2022/02/22 03:35:15;;;;;;;18.42;9.80;;;;;;;3.43;91.89;99659.56;5107583;28;20031;-69
2022/02/22 03:37:40;;;;;;;22.60;10.38;;;;;;;3.44;92.45;99661.25;5107799;28;20061;-69
2022/02/22 03:40:06;;;;;;;18.55;9.25;;;;;;;3.42;92.24;99654.38;5109027;28;20423;-68
2022/02/22 03:42:32;;;;;;;15.10;8.27;;;;;;;3.53;92.60;99670.38;5109153;28;20035;-69
2022/02/22 03:44:57;;;;;;;16.10;8.95;;;;;;;3.59;92.69;99669.94;5109487;28;20019;-68
2022/02/22 03:47:23;;;;;;;17.05;8.63;;;;;;;3.54;92.88;99664.97;5109538;28;20054;-68
2022/02/22 03:49:48;;;;;;;16.08;8.43;;;;;;;3.51;93.18;99667.00;5109148;28;20047;-69
2022/02/22 03:52:14;;;;;;;14.50;6.82;;;;;;;3.57;93.13;99671.84;5109348;28;20027;-68
2022/02/22 03:54:39;;;;;;;16.98;7.70;;;;;;;3.60;93.03;99672.50;5109087;28;20027;-68
2022/02/22 03:57:04;;;;;;;20.85;7.40;;;;;;;3.70;93.16;99685.94;5107382;28;20028;-68
2022/02/22 03:59:30;;;;;;;14.57;6.00;;;;;;;3.87;92.51;99697.06;5109177;28;20027;-68
2022/02/22 04:01:56;;;;;;;12.43;6.43;;;;;;;3.95;91.81;99707.13;5108818;28;20150;-69
2022/02/22 04:04:22;;;;;;;15.85;6.50;;;;;;;4.02;91.53;99708.41;5107392;28;20031;-69
2022/02/22 04:06:47;;;;;;;12.90;6.75;;;;;;;4.11;90.96;99710.41;5108327;28;20493;-69
2022/02/22 04:09:12;;;;;;;16.92;7.47;;;;;;;4.01;90.88;99693.44;5109010;28;20023;-68
2022/02/22 04:11:38;;;;;;;13.00;6.07;;;;;;;4.15;90.07;99694.16;5108840;28;20036;-69
2022/02/22 04:14:03;;;;;;;13.10;6.22;;;;;;;4.25;89.96;99711.13;5108672;28;20098;-69
2022/02/22 04:16:29;;;;;;;9.55;5.50;;;;;;;4.25;90.23;99707.59;5108393;28;20038;-69
2022/02/22 04:18:54;;;;;;;12.93;6.05;;;;;;;4.32;90.01;99716.84;5108532;28;20023;-69
2022/02/22 04:21:20;;;;;;;10.43;6.05;;;;;;;4.29;90.04;99715.25;5107146;28;20027;-70
2022/02/22 04:23:45;;;;;;;9.55;5.20;;;;;;;4.29;89.32;99699.31;5108243;28;20031;-70
2022/02/22 04:26:11;;;;;;;14.32;5.25;;;;;;;4.43;89.15;99716.91;5108049;28;20038;-70
2022/02/22 04:28:36;;;;;;;10.90;5.05;;;;;;;4.39;89.57;99723.41;5108800;28;20093;-70
2022/02/22 04:31:01;;;;;;;13.10;5.47;;;;;;;4.38;88.87;99701.31;5107400;28;20039;-70
2022/02/22 04:33:27;;;;;;;12.30;5.65;;;;;;;4.42;89.07;99708.09;5108844;28;20039;-70
2022/02/22 04:35:52;;;;;;;10.25;5.60;;;;;;;4.58;88.23;99708.66;5108934;28;20024;-70
2022/02/22 04:38:18;;;;;;;15.07;6.15;;;;;;;4.49;88.35;99689.91;5108997;28;20024;-70
2022/02/22 04:40:43;;;;;;;15.88;7.22;;;;;;;4.56;88.71;99717.72;5108837;28;20466;-71
2022/02/22 04:43:09;;;;;;;16.17;7.13;;;;;;;4.60;88.73;99714.72;5108939;28;20031;-70
2022/02/22 04:45:34;;;;;;;14.20;6.75;;;;;;;4.55;89.22;99716.03;5108591;28;20772;-70
2022/02/22 04:48:00;;;;;;;12.88;7.20;;;;;;;4.53;89.04;99712.63;5108726;28;20028;-70
2022/02/22 04:50:25;;;;;;;12.23;6.97;;;;;;;4.51;89.81;99712.72;5108604;28;20551;-70
2022/02/22 04:52:51;;;;;;;18.05;7.93;;;;;;;4.53;89.62;99710.81;5108720;28;20176;-71
2022/02/22 04:55:16;;;;;;;14.13;7.15;;;;;;;4.57;89.79;99720.25;5109213;28;20406;-70
2022/02/22 04:57:42;;;;;;;15.95;7.95;;;;;;;4.47;90.07;99708.63;5107292;28;20047;-71
2022/02/22 05:00:12;;;;;;;13.45;6.95;;;;;;;4.31;91.01;99697.41;5108803;28;20479;-70
2022/02/22 05:02:37;;;;;;;16.85;6.97;;;;;;;4.55;89.78;99706.25;5106645;28;20030;-70
2022/02/22 05:05:03;;;;;;;15.18;7.13;;;;;;;4.53;89.83;99704.66;5108645;28;20031;-70
2022/02/22 05:07:28;;;;;;;13.00;6.70;;;;;;;4.57;89.88;99720.25;5107297;28;20096;-76
2022/02/22 05:09:54;;;;;;;11.73;7.40;;;;;;;4.54;89.82;99716.97;5113965;28;20073;-77
2022/02/22 05:12:20;;;;;;;11.40;6.90;;;;;;;4.54;90.14;99722.28;5113493;28;20027;-76
2022/02/22 05:14:45;;;;;;;11.35;6.78;;;;;;;4.56;89.77;99728.34;5114525;28;20031;-77
2022/02/22 05:17:11;;;;;;;13.52;5.97;;;;;;;4.47;89.38;99710.41;5113127;28;20034;-76
2022/02/22 05:19:36;;;;;;;14.18;7.47;;;;;;;4.49;89.51;99711.16;5113118;28;20076;-76
2022/02/22 05:22:02;;;;;;;12.00;7.07;;;;;;;4.47;89.36;99729.00;5112974;28;20026;-76
2022/02/22 05:24:27;;;;;;;15.23;7.50;;;;;;;4.47;90.14;99740.47;5112699;28;20410;-76
2022/02/22 05:26:53;;;;;;;11.93;6.88;;;;;;;4.31;90.65;99745.19;5113128;28;20080;-76
2022/02/22 05:29:18;;;;;;;11.60;6.22;;;;;;;4.31;90.86;99755.81;5114243;28;20027;-76
2022/02/22 05:31:44;;;;;;;12.50;6.30;;;;;;;4.21;91.54;99753.91;5108940;28;20027;-76
2022/02/22 05:34:09;;;;;;;11.93;5.93;;;;;;;4.14;91.99;99752.66;5113620;28;20031;-75
2022/02/22 05:36:35;;;;;;;10.50;5.95;;;;;;;4.20;92.38;99747.75;5112984;27;20055;-76
2022/02/22 05:39:00;;;;;;;13.77;5.43;;;;;;;4.26;92.70;99770.38;5113431;28;20019;-75
2022/02/22 05:41:26;;;;;;;13.13;5.90;;;;;;;4.40;92.16;99771.06;5111899;28;20027;-75
2022/02/22 05:43:52;;;;;;;10.30;5.38;;;;;;;4.37;91.72;99759.81;5112043;28;20543;-75
2022/02/22 05:46:18;;;;;;;9.45;5.10;;;;;;;4.43;91.66;99759.38;5113002;28;20250;-76
2022/02/22 05:48:44;;;;;;;9.95;5.40;;;;;;;4.45;91.39;99755.66;5111646;28;20027;-77
2022/02/22 05:51:10;;;;;;;10.23;5.22;;;;;;;4.45;90.84;99749.53;5113094;28;20040;-77
2022/02/22 05:53:36;;;;;;;9.88;5.35;;;;;;;4.44;91.24;99769.91;5112693;28;20032;-77
2022/02/22 05:56:02;;;;;;;11.52;5.68;;;;;;;4.40;91.04;99757.81;5113344;28;20489;-77
2022/02/22 05:58:28;;;;;;;11.13;5.90;;;;;;;4.47;91.61;99785.59;5112773;28;20023;-77
2022/02/22 06:00:53;;;;;;;12.90;5.25;;;;;;;4.40;91.39;99772.88;5112944;28;20040;-77
2022/02/22 06:03:19;;;;;;;10.77;5.28;;;;;;;4.44;91.77;99783.16;5113276;28;20498;-78
2022/02/22 06:05:44;;;;;;;9.93;5.28;;;;;;;4.44;92.08;99782.31;5111414;28;20394;-77
2022/02/22 06:08:10;;;;;;;11.95;5.43;;;;;;;4.43;92.29;99780.63;5110180;28;20494;-77
2022/02/22 06:10:35;;;;;;;7.38;4.72;;;;;;;4.41;92.43;99777.22;5113433;28;20024;-77
2022/02/22 06:13:00;;;;;;;9.75;5.20;;;;;;;4.41;92.57;99778.06;5113048;28;20023;-78
2022/02/22 06:15:26;;;;;;;10.07;4.72;;;;;;;4.44;92.86;99787.63;5111348;28;20030;-77
2022/02/22 06:17:51;;;;;;;10.48;5.47;;;;;;;4.35;93.59;99797.09;5112620;28;20019;-78
2022/02/22 06:20:17;;;;;;;9.45;4.85;;;;;;;4.42;93.58;99803.66;5111132;28;20095;-78
2022/02/22 06:22:43;;;;;;;9.70;5.20;;;;;;;4.37;93.97;99816.41;5112068;28;20015;-77
2022/02/22 06:25:10;;;;;;;14.63;5.03;;;;;;;4.37;93.87;99803.16;5112085;28;20110;-77
2022/02/22 06:27:52;;;;;;;8.20;4.25;;;;;;;4.36;93.88;99804.09;5112214;28;20035;-78
2022/02/22 06:30:19;;;;;;;9.27;4.75;;;;;;;4.45;94.02;99810.56;5109586;28;20061;-77
2022/02/22 06:32:46;;;;;;;8.05;4.50;;;;;;;4.46;93.97;99807.78;5112011;28;20036;-77
2022/02/22 06:35:11;;;;;;;12.60;5.18;;;;;;;4.54;93.56;99809.91;5112521;28;20548;-75
2022/02/22 06:37:37;;;;;;;9.70;5.75;;;;;;;4.52;93.70;99810.00;5112382;28;20016;-77
2022/02/22 06:40:07;;;;;;;9.55;4.88;;;;;;;4.49;94.14;99820.00;5112401;28;20069;-77
2022/02/22 06:42:37;;;;;;;12.88;4.47;;;;;;;4.56;94.56;99823.94;5111071;28;20023;-76
2022/02/22 06:45:04;;;;;;;10.65;5.00;;;;;;;4.62;94.26;99824.31;5112225;28;20089;-76
2022/02/22 06:47:30;;;;;;;12.70;5.90;;;;;;;4.72;93.95;99824.53;5112648;28;20365;-76
2022/02/22 06:49:56;;;;;;;8.82;4.90;;;;;;;4.82;93.49;99814.94;5112437;28;20043;-74
2022/02/22 06:52:21;;;;;;;10.45;4.70;;;;;;;4.94;93.17;99827.34;5112380;28;20407;-77
2022/02/22 06:54:47;;;;;;;11.77;4.22;;;;;;;4.91;93.78;99832.00;5112160;28;20080;-77
2022/02/22 06:57:12;;;;;;;7.97;4.30;;;;;;;4.93;94.39;99838.06;5109504;28;20020;-77
2022/02/22 06:59:38;;;;;;;8.40;4.22;;;;;;;4.99;94.08;99827.84;5111529;28;20106;-77
2022/02/22 07:02:04;;;;;;;7.63;4.32;;;;;;;5.09;93.97;99836.84;5112466;27;20038;-77
2022/02/22 07:04:29;;;;;;;7.20;3.92;;;;;;;5.13;94.07;99841.00;5112614;28;20027;-77
2022/02/22 07:06:55;;;;;;;7.28;4.20;;;;;;;5.16;93.58;99835.41;5111973;28;20059;-76
2022/02/22 07:09:21;;;;;;;9.60;4.50;;;;;;;5.23;92.74;99836.69;5112347;28;20061;-76
2022/02/22 07:11:46;;;;;;;9.90;3.92;;;;;;;5.39;92.72;99863.84;5111505;28;20028;-75
2022/02/22 07:14:11;;;;;;;8.63;4.60;;;;;;;5.46;92.67;99864.22;5110292;28;20031;-76
2022/02/22 07:16:37;;;;;;;5.78;3.50;;;;;;;5.64;91.48;99857.53;5111014;28;20027;-76
2022/02/22 07:19:03;;;;;;;7.75;3.45;;;;;;;5.89;88.83;99862.72;5111785;28;20026;-76
2022/02/22 07:21:29;;;;;;;3.45;2.50;;;;;;;5.97;88.06;99855.84;5112135;28;20030;-76
2022/02/22 07:23:54;;;;;;;4.15;2.38;;;;;;;6.05;88.13;99858.78;5110554;28;20035;-76
2022/02/22 07:26:20;;;;;;;4.60;2.40;;;;;;;6.18;85.71;99843.56;5111988;28;20088;-76
2022/02/22 07:28:46;;;;;;;3.38;2.20;;;;;;;6.22;86.93;99868.97;5112266;28;20019;-76
2022/02/22 07:31:11;;;;;;;5.53;2.40;;;;;;;6.47;83.48;99876.78;5111472;28;20072;-76
2022/02/22 07:33:38;;;;;;;3.63;2.35;;;;;;;6.37;84.56;99865.13;5110643;28;20035;-76
2022/02/22 07:36:07;;;;;;;4.22;2.35;;;;;;;6.43;85.57;99885.97;5111747;28;20020;-76
2022/02/22 07:38:33;;;;;;;4.65;2.00;;;;;;;6.74;80.73;99882.59;5112051;28;20434;-76
2022/02/22 07:40:59;;;;;;;3.70;1.90;;;;;;;6.72;80.88;99873.03;5112120;28;20051;-77
2022/02/22 07:43:25;;;;;;;2.80;1.90;;;;;;;6.92;79.38;99897.13;5111694;28;20505;-76
2022/02/22 07:45:50;;;;;;;6.30;3.22;;;;;;;6.97;77.92;99888.78;5111172;28;20036;-76
2022/02/22 07:48:16;;;;;;;4.82;2.47;;;;;;;7.06;77.21;99895.19;5111614;28;20027;-77
2022/02/22 07:50:41;;;;;;;5.30;2.20;;;;;;;7.12;76.30;99887.53;5111714;28;20479;-77
2022/02/22 07:53:07;;;;;;;3.10;1.88;;;;;;;7.32;75.21;99892.09;5110683;28;20086;-77
2022/02/22 07:55:33;;;;;;;2.55;1.70;;;;;;;7.60;72.68;99893.34;5111047;28;20590;-77
2022/02/22 07:57:58;;;;;;;4.32;1.90;;;;;;;7.89;71.90;99907.78;5111301;28;20051;-76
2022/02/22 08:00:24;;;;;;;3.70;1.60;;;;;;;8.27;71.33;99902.78;5111246;28;20576;-76
2022/02/22 08:02:54;;;;;;;2.65;1.70;;;;;;;9.20;66.58;99898.03;5109892;28;20100;-78
2022/02/22 08:05:19;;;;;;;4.38;1.73;;;;;;;10.37;60.04;99885.47;5111108;28;20019;-80
2022/02/22 08:07:45;;;;;;;2.35;1.33;;;;;;;10.80;59.18;99891.16;5110278;28;20047;-78
2022/02/22 08:10:10;;;;;;;3.97;1.50;;;;;;;11.75;56.47;99879.06;5110185;28;20028;-79
2022/02/22 08:12:36;;;;;;;2.22;1.60;;;;;;;13.15;51.33;99885.00;5111100;28;20077;-78
2022/02/22 08:15:02;;;;;;;2.15;1.40;;;;;;;13.01;52.22;99882.94;5112104;28;20072;-78
2022/02/22 08:17:29;;;;;;;1.95;1.48;;;;;;;13.31;50.86;99893.16;5111421;28;20020;-78
2022/02/22 08:19:55;;;;;;;1.65;1.50;;;;;;;14.41;47.67;99894.56;5113744;28;20403;-78
2022/02/22 08:22:22;;;;;;;2.28;1.30;;;;;;;14.13;47.76;99884.25;5113025;28;20019;-78
2022/02/22 08:24:48;;;;;;;2.50;1.67;;;;;;;13.02;50.50;99891.84;5111438;28;20031;-78
2022/02/22 08:27:17;;;;;;;2.88;1.65;;;;;;;12.40;51.95;99905.53;5112699;28;20038;-80
2022/02/22 08:29:42;;;;;;;2.75;1.83;;;;;;;11.89;53.10;99908.94;5109779;28;20032;-78
2022/02/22 08:32:08;;;;;;;2.45;1.67;;;;;;;11.20;55.04;99914.00;5112217;28;20035;-79
2022/02/22 08:34:33;;;;;;;2.00;1.70;;;;;;;10.73;56.63;99917.69;5112051;28;20105;-77
2022/02/22 08:36:59;;;;;;;2.90;1.60;;;;;;;10.40;57.48;99923.56;5111704;28;20057;-78
2022/02/22 08:39:25;;;;;;;2.45;1.55;;;;;;;10.28;56.46;99919.34;5111999;28;20024;-76
2022/02/22 08:41:54;;;;;;;3.20;2.03;;;;;;;9.88;57.43;99928.47;5110685;28;20042;-78
2022/02/22 08:44:20;;;;;;;2.85;1.60;;;;;;;9.56;59.41;99933.22;5110575;28;20031;-78
2022/02/22 08:46:46;;;;;;;3.28;1.42;;;;;;;9.28;59.35;99927.66;5109697;28;20046;-77
2022/02/22 08:49:11;;;;;;;2.70;1.60;;;;;;;9.06;59.96;99935.88;5111864;28;20031;-78
2022/02/22 08:51:37;;;;;;;2.75;1.30;;;;;;;8.90;60.27;99937.38;5108267;28;20024;-78
2022/02/22 08:54:07;;;;;;;5.63;1.60;;;;;;;9.08;58.95;99939.28;5111512;28;20069;-78
2022/02/22 08:56:33;;;;;;;3.42;1.67;;;;;;;8.94;59.94;99952.16;5109167;28;20024;-78
2022/02/22 08:58:58;;;;;;;2.90;1.50;;;;;;;8.76;60.48;99935.03;5111346;28;20033;-78
2022/02/22 09:01:24;;;;;;;4.30;1.60;;;;;;;8.76;60.76;99946.56;5111489;28;20038;-78
2022/02/22 09:03:49;;;;;;;4.90;1.50;;;;;;;8.67;61.97;99950.03;5108548;28;20483;-78
2022/02/22 09:06:15;;;;;;;3.55;1.35;;;;;;;8.72;61.52;99952.31;5111093;28;20030;-78
2022/02/22 09:08:40;;;;;;;2.95;1.38;;;;;;;8.68;62.16;99942.88;5111598;28;20039;-77
2022/02/22 09:11:06;;;;;;;2.65;1.60;;;;;;;8.88;61.97;99958.91;5111730;28;20016;-78
2022/02/22 09:13:31;;;;;;;1.83;1.35;;;;;;;8.95;59.97;99959.19;5111037;28;20023;-77
2022/02/22 09:15:57;;;;;;;2.72;1.20;;;;;;;8.95;59.14;99951.16;5111149;28;20051;-77
2022/02/22 09:18:22;;;;;;;1.95;1.15;;;;;;;8.91;59.76;99957.78;5110741;28;20019;-79
2022/02/22 09:20:48;;;;;;;1.40;1.10;;;;;;;9.08;58.39;99965.16;5110443;28;20118;-77
2022/02/22 09:23:14;;;;;;;1.70;1.00;;;;;;;9.02;57.76;99957.66;5111307;28;20434;-77
2022/02/22 09:25:39;;;;;;;1.83;1.33;;;;;;;9.04;57.76;99961.06;5110051;28;20032;-77
2022/02/22 09:28:07;;;;;;;1.20;1.08;;;;;;;9.10;58.12;99973.91;5111361;28;20034;-77
2022/02/22 09:30:36;;;;;;;2.25;1.15;;;;;;;9.33;57.08;99970.06;5110811;28;20521;-77
2022/02/22 09:33:03;;;;;;;2.10;1.10;;;;;;;9.44;57.16;99971.81;5110888;28;20102;-78
2022/02/22 09:35:29;;;;;;;1.50;1.20;;;;;;;9.44;56.81;99963.78;5110312;28;20114;-80
2022/02/22 09:37:56;;;;;;;5.10;1.30;;;;;;;9.61;55.87;99955.91;5110474;28;20475;-77
2022/02/22 09:40:24;;;;;;;3.60;1.63;;;;;;;9.99;55.07;99974.72;5111274;28;20016;-78
2022/02/22 09:42:51;;;;;;;2.38;1.20;;;;;;;10.25;55.28;99975.06;5111409;28;20031;-79
2022/02/22 09:45:17;;;;;;;2.47;0.90;;;;;;;11.11;53.13;99970.41;5110388;28;20040;-79
2022/02/22 09:47:44;;;;;;;2.80;1.20;;;;;;;12.91;48.78;99978.22;5111078;28;20064;-78
2022/02/22 09:50:11;;;;;;;1.45;0.90;;;;;;;14.77;44.71;99976.84;5110729;28;20507;-77
2022/02/22 09:52:36;;;;;;;1.33;0.80;;;;;;;16.65;40.11;99965.78;5109680;28;20020;-69
2022/02/22 09:55:04;;;;;;;1.80;0.90;;;;;;;18.33;36.89;99962.13;5109116;28;20035;-69
2022/02/22 09:57:29;;;;;;;0.93;0.63;;;;;;;19.87;34.11;99949.97;5110801;28;20088;-69
2022/02/22 09:59:55;;;;;;;2.13;1.00;;;;;;;21.12;31.94;99948.38;5110806;28;20024;-69
2022/02/22 10:02:21;;;;;;;2.20;1.10;;;;;;;21.91;31.06;99938.94;5108859;28;20061;-70
2022/02/22 10:04:48;;;;;;;2.28;0.77;;;;;;;22.86;29.53;99945.09;5110014;28;20030;-70
2022/02/22 10:07:15;;;;;;;3.00;0.85;;;;;;;23.61;28.68;99936.63;5110912;28;20513;-70
2022/02/22 10:09:51;;;;;;;0.85;0.80;;;;;;;24.37;26.73;99937.78;5111077;28;20031;-70
2022/02/22 10:12:30;;;;;;;2.90;0.90;;;;;;;24.35;26.72;99939.91;5109497;27;20414;-70
2022/02/22 10:14:57;;;;;;;5.32;1.20;;;;;;;24.67;26.22;99931.44;5111381;27;20031;-70
2022/02/22 10:17:23;;;;;;;7.70;1.92;;;;;;;24.99;25.84;99927.34;5111100;28;20027;-70
2022/02/22 10:20:01;;;;;;;5.25;1.80;;;;;;;25.86;24.75;99935.44;5111146;28;20481;-70
2022/02/22 10:22:28;;;;;;;3.58;1.75;;;;;;;24.93;25.26;99925.53;5111187;28;20032;-71
2022/02/22 10:25:09;;;;;;;2.17;1.42;;;;;;;24.41;25.89;99949.13;5109796;28;20052;-69
2022/02/22 10:27:47;;;;;;;3.38;0.98;;;;;;;24.24;25.69;99948.91;5110749;28;20063;-69
2022/02/22 10:30:27;;;;;;;4.15;1.10;;;;;;;23.88;26.10;99951.69;5110948;28;20035;-69
2022/02/22 10:32:54;;;;;;;1.00;0.90;;;;;;;23.52;26.72;99948.09;5111025;28;20036;-70
2022/02/22 10:35:27;;;;;;;1.92;0.98;;;;;;;22.69;27.69;99956.84;5113341;28;20023;-78
2022/02/22 10:37:52;;;;;;;1.45;0.90;;;;;;;21.83;28.57;99952.84;5114623;28;20027;-78
2022/02/22 10:40:29;;;;;;;2.22;1.00;;;;;;;21.45;29.35;99968.25;5115005;28;20534;-78
2022/02/22 10:42:55;;;;;;;3.00;1.02;;;;;;;21.39;28.99;99963.63;5112941;28;20031;-78
2022/02/22 10:45:24;;;;;;;2.60;1.27;;;;;;;19.98;30.71;99956.72;5115385;28;20530;-80
2022/02/22 10:47:50;;;;;;;1.85;1.05;;;;;;;19.20;31.61;99951.66;5116111;28;20032;-79
2022/02/22 10:50:23;;;;;;;2.70;0.93;;;;;;;18.15;32.89;99984.28;5114183;28;20081;-79
2022/02/22 10:52:49;;;;;;;1.73;1.00;;;;;;;17.20;34.17;99976.28;5112034;28;20475;-78
2022/02/22 10:55:14;;;;;;;2.22;1.20;;;;;;;16.30;35.84;99989.88;5111898;28;20043;-69
2022/02/22 10:57:41;;;;;;;3.63;1.23;;;;;;;15.24;37.68;99983.22;5110882;28;20049;-69
2022/02/22 11:00:07;;;;;;;1.75;0.90;;;;;;;14.48;39.62;99992.72;5110572;28;20529;-70
2022/02/22 11:02:32;;;;;;;4.22;1.00;;;;;;;13.89;40.96;100000.16;5110426;28;20146;-70
2022/02/22 11:04:58;;;;;;;1.60;1.05;;;;;;;13.41;41.90;99988.16;5110437;28;20067;-70
2022/02/22 11:07:26;;;;;;;1.48;1.00;;;;;;;13.25;43.05;100016.84;5108066;28;20463;-69
2022/02/22 11:09:52;;;;;;;2.45;1.30;;;;;;;12.94;43.41;100021.84;5107748;28;20042;-70
2022/02/22 11:12:30;;;;;;;4.28;1.33;;;;;;;12.55;43.51;100000.81;5112621;28;20031;-78
2022/02/22 11:15:12;;;;;;;2.53;1.15;;;;;;;12.34;43.91;100017.25;5112303;28;20034;-78
2022/02/22 11:17:49;;;;;;;7.63;1.17;;;;;;;12.33;43.96;100026.34;5113946;28;20035;-79
2022/02/22 11:20:29;;;;;;;2.95;0.90;;;;;;;11.98;44.09;100015.53;5112907;28;20383;-78
2022/02/22 11:23:04;;;;;;;1.85;1.08;;;;;;;11.72;45.39;100030.66;5111709;28;20041;-79
2022/02/22 11:25:32;;;;;;;3.60;1.05;;;;;;;11.52;45.85;100020.97;5112016;28;20043;-79
2022/02/22 11:28:03;;;;;;;1.45;1.00;;;;;;;11.63;46.68;100025.31;5111062;28;20031;-79
2022/02/22 11:30:30;;;;;;;4.05;1.13;;;;;;;11.48;46.63;100027.63;5111799;28;20106;-79